SAS321 EKCH-ESSA
Flight info
| Callsign | SAS321 |
|---|---|
| Flight time | N/A |
| Altitude | 39000 |
| Route | KEMAX5A KEMAX N851 ROXEN DCT MIKNA N851 PELUP Z226 NILUG NILUG2V |
| Aircraft | A320/M-ICAO/L |
Departure
| Time | 2026-04-24 20:03 |
|---|---|
| Airport | Copenhagen Kastrup Airport (EKCH) |
Arrival
| Time | N/A |
|---|---|
| Airport | Stockholm-Arlanda Airport (ESSA) |
| Time | Latitude | Longitude | Altitude | Speed | Heading |
|---|---|---|---|---|---|
| 2026-04-24 19:31 | 55.62580 | 12.64563 | 26 ft | 0 kts | 304° |
| 2026-04-24 19:52 | 55.62575 | 12.64578 | 24 ft | 3 kts | 304° |
| 2026-04-24 19:52 | 55.62564 | 12.64604 | 27 ft | 3 kts | 297° |
| 2026-04-24 19:52 | 55.62563 | 12.64634 | 26 ft | 3 kts | 222° |
| 2026-04-24 19:53 | 55.62573 | 12.64644 | 24 ft | 0 kts | 175° |
| 2026-04-24 19:57 | 55.62572 | 12.64644 | 22 ft | 0 kts | 175° |
| 2026-04-24 19:57 | 55.62547 | 12.64648 | 54 ft | 14 kts | 174° |
| 2026-04-24 19:58 | 55.62453 | 12.64671 | 27 ft | 13 kts | 171° |
| 2026-04-24 19:58 | 55.62440 | 12.64674 | 25 ft | 9 kts | 175° |
| 2026-04-24 19:58 | 55.62334 | 12.64699 | 26 ft | 15 kts | 147° |
| 2026-04-24 19:58 | 55.62286 | 12.64814 | 28 ft | 0 kts | 123° |
| 2026-04-24 19:59 | 55.62278 | 12.64818 | 28 ft | 7 kts | 163° |
| 2026-04-24 19:59 | 55.62205 | 12.64767 | 28 ft | 12 kts | 214° |
| 2026-04-24 19:59 | 55.62117 | 12.64667 | 27 ft | 24 kts | 214° |
| 2026-04-24 19:59 | 55.61964 | 12.64510 | 23 ft | 24 kts | 192° |
| 2026-04-24 20:00 | 55.61804 | 12.64536 | 25 ft | 23 kts | 171° |
| 2026-04-24 20:00 | 55.61653 | 12.64537 | 22 ft | 19 kts | 211° |
| 2026-04-24 20:00 | 55.61474 | 12.64336 | 23 ft | 35 kts | 213° |
| 2026-04-24 20:00 | 55.61268 | 12.64098 | 19 ft | 35 kts | 215° |
| 2026-04-24 20:01 | 55.61067 | 12.63867 | 21 ft | 34 kts | 209° |
| 2026-04-24 20:01 | 55.60880 | 12.63650 | 24 ft | 32 kts | 212° |
| 2026-04-24 20:01 | 55.60694 | 12.63436 | 22 ft | 32 kts | 213° |
| 2026-04-24 20:01 | 55.60524 | 12.63218 | 28 ft | 22 kts | 189° |
| 2026-04-24 20:02 | 55.60473 | 12.63253 | 27 ft | 9 kts | 134° |
| 2026-04-24 20:02 | 55.60414 | 12.63435 | 29 ft | 14 kts | 81° |
| 2026-04-24 20:02 | 55.60470 | 12.63556 | 28 ft | 12 kts | 40° |
| 2026-04-24 20:02 | 55.60654 | 12.63843 | 30 ft | 71 kts | 41° |
| 2026-04-24 20:03 | 55.61228 | 12.64724 | 29 ft | 148 kts | 40° |
| 2026-04-24 20:03 | 55.62147 | 12.66103 | 241 ft | 189 kts | 39° |
| 2026-04-24 20:03 | 55.63169 | 12.67628 | 1038 ft | 185 kts | 36° |
| 2026-04-24 20:03 | 55.64133 | 12.69062 | 2006 ft | 186 kts | 34° |
| 2026-04-24 20:04 | 55.65203 | 12.70633 | 2401 ft | 219 kts | 36° |
| 2026-04-24 20:04 | 55.66468 | 12.72490 | 2759 ft | 253 kts | 36° |
| 2026-04-24 20:04 | 55.67902 | 12.74603 | 3146 ft | 283 kts | 37° |
| 2026-04-24 20:04 | 55.69479 | 12.76935 | 3681 ft | 304 kts | 37° |
| 2026-04-24 20:05 | 55.71107 | 12.79416 | 4576 ft | 313 kts | 39° |
| 2026-04-24 20:05 | 55.72725 | 12.82147 | 5251 ft | 329 kts | 41° |
| 2026-04-24 20:05 | 55.74369 | 12.85084 | 6011 ft | 339 kts | 41° |
| 2026-04-24 20:05 | 55.76024 | 12.88125 | 6822 ft | 346 kts | 42° |
| 2026-04-24 20:06 | 55.77700 | 12.91228 | 7670 ft | 350 kts | 41° |
| 2026-04-24 20:06 | 55.79415 | 12.94343 | 8576 ft | 354 kts | 41° |
| 2026-04-24 20:06 | 55.81149 | 12.97496 | 9503 ft | 359 kts | 41° |
| 2026-04-24 20:06 | 55.82883 | 13.00664 | 10350 ft | 364 kts | 41° |
| 2026-04-24 20:07 | 55.84079 | 13.02865 | 10880 ft | 368 kts | 41° |
| 2026-04-24 20:07 | 55.86442 | 13.07260 | 11975 ft | 374 kts | 41° |
| 2026-04-24 20:07 | 55.88244 | 13.10650 | 12786 ft | 379 kts | 41° |
| 2026-04-24 20:07 | 55.90073 | 13.14083 | 13539 ft | 384 kts | 41° |
| 2026-04-24 20:08 | 55.91976 | 13.17466 | 14221 ft | 388 kts | 38° |
| 2026-04-24 20:08 | 55.93951 | 13.20776 | 14903 ft | 391 kts | 37° |
| 2026-04-24 20:08 | 55.95959 | 13.24099 | 15593 ft | 395 kts | 37° |
| 2026-04-24 20:08 | 55.97978 | 13.27456 | 16304 ft | 399 kts | 37° |
| 2026-04-24 20:09 | 56.00017 | 13.30862 | 16982 ft | 403 kts | 37° |
| 2026-04-24 20:09 | 56.02074 | 13.34305 | 17672 ft | 407 kts | 37° |
| 2026-04-24 20:09 | 56.04155 | 13.37800 | 18302 ft | 412 kts | 37° |
| 2026-04-24 20:09 | 56.06253 | 13.41336 | 18767 ft | 414 kts | 37° |
| 2026-04-24 20:10 | 56.08354 | 13.44887 | 18933 ft | 415 kts | 37° |
| 2026-04-24 20:10 | 56.10454 | 13.48444 | 18976 ft | 416 kts | 37° |
| 2026-04-24 20:10 | 56.12533 | 13.51974 | 18966 ft | 416 kts | 37° |
| 2026-04-24 20:10 | 56.14656 | 13.55498 | 18963 ft | 414 kts | 34° |
| 2026-04-24 20:11 | 56.16888 | 13.58742 | 18966 ft | 413 kts | 33° |
| 2026-04-24 20:11 | 56.19126 | 13.61975 | 18963 ft | 413 kts | 32° |
| 2026-04-24 20:11 | 56.21377 | 13.65190 | 18985 ft | 414 kts | 32° |
| 2026-04-24 20:11 | 56.23639 | 13.68420 | 19416 ft | 417 kts | 32° |
| 2026-04-24 20:12 | 56.25911 | 13.71676 | 20068 ft | 418 kts | 32° |
| 2026-04-24 20:12 | 56.28190 | 13.74953 | 20683 ft | 420 kts | 32° |
| 2026-04-24 20:12 | 56.30476 | 13.78253 | 21258 ft | 423 kts | 32° |
| 2026-04-24 20:12 | 56.32783 | 13.81592 | 21822 ft | 426 kts | 32° |
| 2026-04-24 20:13 | 56.35102 | 13.84957 | 22422 ft | 429 kts | 32° |
| 2026-04-24 20:13 | 56.37434 | 13.88357 | 22981 ft | 433 kts | 32° |
| 2026-04-24 20:13 | 56.39784 | 13.91791 | 23516 ft | 436 kts | 32° |
| 2026-04-24 20:13 | 56.42145 | 13.95253 | 23978 ft | 439 kts | 32° |
| 2026-04-24 20:14 | 56.44515 | 13.98772 | 24489 ft | 441 kts | 32° |
| 2026-04-24 20:14 | 56.46887 | 14.02315 | 24897 ft | 445 kts | 32° |
| 2026-04-24 20:14 | 56.49282 | 14.05902 | 25297 ft | 448 kts | 32° |
| 2026-04-24 20:14 | 56.51662 | 14.09474 | 25708 ft | 451 kts | 32° |
| 2026-04-24 20:15 | 56.54090 | 14.13128 | 26109 ft | 454 kts | 32° |
| 2026-04-24 20:15 | 56.56528 | 14.16806 | 26512 ft | 457 kts | 32° |
| 2026-04-24 20:15 | 56.58985 | 14.20516 | 26929 ft | 459 kts | 32° |
| 2026-04-24 20:15 | 56.61451 | 14.24241 | 27308 ft | 462 kts | 32° |
| 2026-04-24 20:16 | 56.63927 | 14.27989 | 27672 ft | 465 kts | 32° |
| 2026-04-24 20:16 | 56.66421 | 14.31771 | 28030 ft | 468 kts | 32° |
| 2026-04-24 20:16 | 56.68920 | 14.35571 | 28442 ft | 469 kts | 32° |
| 2026-04-24 20:16 | 56.71418 | 14.39384 | 28927 ft | 468 kts | 32° |
| 2026-04-24 20:17 | 56.73908 | 14.43199 | 29408 ft | 468 kts | 32° |
| 2026-04-24 20:17 | 56.78874 | 14.50855 | 30298 ft | 467 kts | 33° |
| 2026-04-24 20:17 | 56.81352 | 14.54692 | 30746 ft | 465 kts | 33° |
| 2026-04-24 20:18 | 56.82980 | 14.57212 | 31058 ft | 463 kts | 33° |
| 2026-04-24 20:18 | 56.86235 | 14.62251 | 31559 ft | 463 kts | 33° |
| 2026-04-24 20:18 | 56.88690 | 14.66058 | 31899 ft | 463 kts | 33° |
| 2026-04-24 20:18 | 56.91146 | 14.69873 | 32251 ft | 463 kts | 33° |
| 2026-04-24 20:19 | 56.93602 | 14.73692 | 32589 ft | 463 kts | 33° |
| 2026-04-24 20:19 | 56.96057 | 14.77513 | 32956 ft | 462 kts | 33° |
| 2026-04-24 20:19 | 56.98505 | 14.81329 | 33292 ft | 462 kts | 33° |
| 2026-04-24 20:19 | 57.00956 | 14.85154 | 33623 ft | 462 kts | 33° |
| 2026-04-24 20:20 | 57.03403 | 14.88980 | 33952 ft | 461 kts | 33° |
| 2026-04-24 20:20 | 57.05838 | 14.92789 | 34401 ft | 458 kts | 33° |
| 2026-04-24 20:20 | 57.08235 | 14.96518 | 34686 ft | 457 kts | 33° |
| 2026-04-24 20:20 | 57.10672 | 15.00288 | 34870 ft | 458 kts | 33° |
| 2026-04-24 20:21 | 57.13150 | 15.04112 | 35079 ft | 459 kts | 33° |
| 2026-04-24 20:21 | 57.15603 | 15.07886 | 35298 ft | 459 kts | 33° |
| 2026-04-24 20:21 | 57.18058 | 15.11654 | 35521 ft | 460 kts | 33° |
| 2026-04-24 20:21 | 57.20490 | 15.15378 | 35732 ft | 460 kts | 33° |
| 2026-04-24 20:22 | 57.22958 | 15.19145 | 35940 ft | 460 kts | 33° |
| 2026-04-24 20:22 | 57.25428 | 15.22906 | 36146 ft | 461 kts | 33° |
| 2026-04-24 20:22 | 57.27905 | 15.26669 | 36378 ft | 461 kts | 33° |
| 2026-04-24 20:22 | 57.30395 | 15.30421 | 36550 ft | 462 kts | 33° |
| 2026-04-24 20:23 | 57.32893 | 15.34171 | 36733 ft | 462 kts | 33° |
| 2026-04-24 20:23 | 57.35392 | 15.37916 | 36921 ft | 463 kts | 33° |
| 2026-04-24 20:23 | 57.37897 | 15.41661 | 37107 ft | 463 kts | 33° |
| 2026-04-24 20:23 | 57.40407 | 15.45405 | 37295 ft | 463 kts | 33° |
| 2026-04-24 20:24 | 57.42080 | 15.47870 | 37403 ft | 463 kts | 32° |
| 2026-04-24 20:24 | 57.45582 | 15.52481 | 37643 ft | 460 kts | 28° |
| 2026-04-24 20:24 | 57.48262 | 15.55712 | 37800 ft | 460 kts | 27° |
| 2026-04-24 20:24 | 57.50963 | 15.58926 | 37978 ft | 460 kts | 27° |
| 2026-04-24 20:25 | 57.53666 | 15.62121 | 38160 ft | 461 kts | 27° |
| 2026-04-24 20:25 | 57.56377 | 15.65310 | 38304 ft | 461 kts | 27° |
| 2026-04-24 20:25 | 57.59094 | 15.68500 | 38460 ft | 461 kts | 27° |
| 2026-04-24 20:25 | 57.61781 | 15.71653 | 38585 ft | 462 kts | 27° |
| 2026-04-24 20:26 | 57.64503 | 15.74846 | 38718 ft | 462 kts | 27° |
| 2026-04-24 20:26 | 57.67228 | 15.78044 | 38842 ft | 462 kts | 27° |
| 2026-04-24 20:26 | 57.72678 | 15.84442 | 38880 ft | 463 kts | 27° |
| 2026-04-24 20:27 | 57.78132 | 15.90858 | 38877 ft | 462 kts | 27° |
| 2026-04-24 20:27 | 57.83570 | 15.97277 | 38874 ft | 462 kts | 27° |
| 2026-04-24 20:28 | 57.89014 | 16.03718 | 38884 ft | 462 kts | 27° |
| 2026-04-24 20:28 | 57.94447 | 16.10158 | 38872 ft | 461 kts | 27° |
| 2026-04-24 20:29 | 57.99839 | 16.16747 | 38880 ft | 462 kts | 28° |
| 2026-04-24 20:29 | 58.03584 | 16.21375 | 38871 ft | 463 kts | 28° |
| 2026-04-24 20:30 | 58.08989 | 16.28019 | 38872 ft | 463 kts | 27° |
| 2026-04-24 20:30 | 58.14402 | 16.34497 | 38859 ft | 463 kts | 27° |
| 2026-04-24 20:31 | 58.19853 | 16.41021 | 38863 ft | 463 kts | 27° |
| 2026-04-24 20:31 | 58.25302 | 16.47563 | 38849 ft | 463 kts | 28° |
| 2026-04-24 20:32 | 58.27855 | 16.51333 | 38733 ft | 469 kts | 40° |
| 2026-04-24 20:32 | 58.30011 | 16.56050 | 38070 ft | 476 kts | 49° |
| 2026-04-24 20:32 | 58.31908 | 16.61254 | 37352 ft | 480 kts | 52° |
| 2026-04-24 20:32 | 58.33727 | 16.66583 | 36727 ft | 480 kts | 52° |
| 2026-04-24 20:33 | 58.35522 | 16.71938 | 36152 ft | 479 kts | 52° |
| 2026-04-24 20:33 | 58.36705 | 16.75500 | 35755 ft | 478 kts | 52° |
| 2026-04-24 20:33 | 58.38472 | 16.80859 | 35159 ft | 478 kts | 52° |
| 2026-04-24 20:33 | 58.40797 | 16.87987 | 34391 ft | 477 kts | 52° |
| 2026-04-24 20:34 | 58.42530 | 16.93361 | 33819 ft | 476 kts | 53° |
| 2026-04-24 20:34 | 58.43700 | 16.97012 | 33346 ft | 475 kts | 53° |
| 2026-04-24 20:34 | 58.45422 | 17.02415 | 32624 ft | 475 kts | 53° |
| 2026-04-24 20:34 | 58.47139 | 17.07802 | 31948 ft | 474 kts | 53° |
| 2026-04-24 20:35 | 58.48904 | 17.13102 | 31287 ft | 472 kts | 52° |
| 2026-04-24 20:35 | 58.50658 | 17.18314 | 30581 ft | 471 kts | 52° |
| 2026-04-24 20:35 | 58.52433 | 17.23603 | 29834 ft | 472 kts | 52° |
| 2026-04-24 20:35 | 58.54197 | 17.28873 | 29181 ft | 468 kts | 52° |
| 2026-04-24 20:36 | 58.55942 | 17.34090 | 28870 ft | 464 kts | 52° |
| 2026-04-24 20:36 | 58.57699 | 17.39262 | 28458 ft | 460 kts | 51° |
| 2026-04-24 20:36 | 58.59486 | 17.44257 | 28115 ft | 449 kts | 50° |
| 2026-04-24 20:36 | 58.61269 | 17.49086 | 27882 ft | 437 kts | 49° |
| 2026-04-24 20:37 | 58.63007 | 17.53781 | 27656 ft | 426 kts | 49° |
| 2026-04-24 20:37 | 58.64037 | 17.56571 | 27476 ft | 420 kts | 49° |
| 2026-04-24 20:37 | 58.65715 | 17.61125 | 27050 ft | 415 kts | 49° |
| 2026-04-24 20:37 | 58.67374 | 17.65628 | 26584 ft | 411 kts | 49° |
| 2026-04-24 20:38 | 58.69013 | 17.70045 | 26020 ft | 410 kts | 49° |
| 2026-04-24 20:38 | 58.70706 | 17.74448 | 25513 ft | 405 kts | 44° |
| 2026-04-24 20:38 | 58.72729 | 17.78098 | 25031 ft | 394 kts | 31° |
| 2026-04-24 20:38 | 58.74993 | 17.81018 | 24568 ft | 389 kts | 27° |
| 2026-04-24 20:39 | 58.77282 | 17.83783 | 24099 ft | 387 kts | 27° |
| 2026-04-24 20:39 | 58.79555 | 17.86513 | 23636 ft | 384 kts | 27° |
| 2026-04-24 20:39 | 58.81819 | 17.89227 | 23127 ft | 382 kts | 27° |
| 2026-04-24 20:39 | 58.84080 | 17.91937 | 22590 ft | 380 kts | 27° |
| 2026-04-24 20:40 | 58.86316 | 17.94616 | 22078 ft | 377 kts | 27° |
| 2026-04-24 20:40 | 58.88537 | 17.97280 | 21560 ft | 374 kts | 27° |
| 2026-04-24 20:40 | 58.90747 | 17.99931 | 21064 ft | 372 kts | 27° |
| 2026-04-24 20:40 | 58.92941 | 18.02568 | 20545 ft | 370 kts | 27° |
| 2026-04-24 20:41 | 58.95101 | 18.05169 | 20027 ft | 369 kts | 27° |
| 2026-04-24 20:41 | 58.97294 | 18.07720 | 19527 ft | 366 kts | 26° |
| 2026-04-24 20:41 | 58.99494 | 18.10188 | 19058 ft | 364 kts | 25° |
| 2026-04-24 20:41 | 59.01701 | 18.12529 | 18593 ft | 359 kts | 21° |
| 2026-04-24 20:42 | 59.03989 | 18.14442 | 18140 ft | 355 kts | 18° |
| 2026-04-24 20:42 | 59.06272 | 18.16224 | 17618 ft | 352 kts | 17° |
| 2026-04-24 20:42 | 59.08548 | 18.17952 | 17092 ft | 348 kts | 14° |
| 2026-04-24 20:42 | 59.10883 | 18.18967 | 16583 ft | 341 kts | 3° |
| 2026-04-24 20:43 | 59.13226 | 18.19400 | 16071 ft | 337 kts | 1° |
| 2026-04-24 20:43 | 59.15536 | 18.20323 | 15554 ft | 341 kts | 13° |
| 2026-04-24 20:43 | 59.17759 | 18.21934 | 15081 ft | 340 kts | 17° |
| 2026-04-24 20:43 | 59.19950 | 18.23652 | 14581 ft | 340 kts | 17° |
| 2026-04-24 20:44 | 59.22138 | 18.25376 | 14091 ft | 338 kts | 17° |
| 2026-04-24 20:44 | 59.24317 | 18.27090 | 13635 ft | 336 kts | 17° |
| 2026-04-24 20:44 | 59.26477 | 18.28783 | 13114 ft | 333 kts | 17° |
| 2026-04-24 20:44 | 59.28624 | 18.30458 | 12624 ft | 331 kts | 17° |
| 2026-04-24 20:45 | 59.30725 | 18.32089 | 12143 ft | 328 kts | 18° |
| 2026-04-24 20:45 | 59.32844 | 18.33726 | 11660 ft | 325 kts | 18° |
| 2026-04-24 20:45 | 59.34942 | 18.35337 | 11191 ft | 323 kts | 18° |
| 2026-04-24 20:45 | 59.37027 | 18.36928 | 10723 ft | 320 kts | 18° |
| 2026-04-24 20:46 | 59.39104 | 18.38504 | 10247 ft | 318 kts | 18° |
| 2026-04-24 20:46 | 59.41164 | 18.40054 | 9778 ft | 316 kts | 18° |
| 2026-04-24 20:46 | 59.43212 | 18.41588 | 9257 ft | 313 kts | 18° |
| 2026-04-24 20:46 | 59.45241 | 18.43106 | 8748 ft | 311 kts | 18° |
| 2026-04-24 20:47 | 59.47255 | 18.44610 | 8229 ft | 308 kts | 18° |
| 2026-04-24 20:47 | 59.49251 | 18.46108 | 7717 ft | 306 kts | 18° |
| 2026-04-24 20:47 | 59.51230 | 18.47595 | 7234 ft | 303 kts | 18° |
| 2026-04-24 20:47 | 59.53192 | 18.49075 | 6749 ft | 301 kts | 18° |
| 2026-04-24 20:48 | 59.55138 | 18.50548 | 6268 ft | 298 kts | 18° |
| 2026-04-24 20:48 | 59.57065 | 18.52011 | 5763 ft | 296 kts | 18° |
| 2026-04-24 20:48 | 59.58992 | 18.53468 | 5229 ft | 295 kts | 18° |
| 2026-04-24 20:48 | 59.60888 | 18.54892 | 4713 ft | 294 kts | 18° |
| 2026-04-24 20:49 | 59.62796 | 18.56320 | 4175 ft | 293 kts | 18° |
| 2026-04-24 20:49 | 59.64706 | 18.57746 | 3620 ft | 293 kts | 18° |
| 2026-04-24 20:49 | 59.66614 | 18.59168 | 3067 ft | 293 kts | 18° |
| 2026-04-24 20:49 | 59.68522 | 18.60586 | 2631 ft | 292 kts | 18° |
| 2026-04-24 20:50 | 59.70422 | 18.62003 | 2512 ft | 292 kts | 18° |
| 2026-04-24 20:50 | 59.72328 | 18.63427 | 2510 ft | 291 kts | 18° |
| 2026-04-24 20:50 | 59.74177 | 18.64793 | 2503 ft | 275 kts | 16° |
| 2026-04-24 20:50 | 59.76005 | 18.65276 | 2502 ft | 261 kts | 350° |
| 2026-04-24 20:51 | 59.77620 | 18.64057 | 2503 ft | 241 kts | 320° |
| 2026-04-24 20:51 | 59.78615 | 18.61539 | 2500 ft | 231 kts | 290° |
| 2026-04-24 20:51 | 59.78771 | 18.58398 | 2501 ft | 230 kts | 260° |
| 2026-04-24 20:51 | 59.78298 | 18.55481 | 2500 ft | 215 kts | 249° |
| 2026-04-24 20:52 | 59.77718 | 18.52853 | 2507 ft | 200 kts | 248° |
| 2026-04-24 20:52 | 59.77154 | 18.50408 | 2533 ft | 193 kts | 248° |
| 2026-04-24 20:52 | 59.76598 | 18.47998 | 2505 ft | 195 kts | 248° |
| 2026-04-24 20:52 | 59.75955 | 18.45634 | 2498 ft | 195 kts | 238° |
| 2026-04-24 20:53 | 59.75172 | 18.43414 | 2499 ft | 197 kts | 236° |
| 2026-04-24 20:53 | 59.74369 | 18.41203 | 2491 ft | 197 kts | 236° |
| 2026-04-24 20:53 | 59.73581 | 18.39020 | 2492 ft | 190 kts | 237° |
| 2026-04-24 20:53 | 59.72857 | 18.36997 | 2486 ft | 169 kts | 238° |
| 2026-04-24 20:54 | 59.72208 | 18.35200 | 2488 ft | 155 kts | 236° |
| 2026-04-24 20:54 | 59.71571 | 18.33485 | 2494 ft | 154 kts | 235° |
| 2026-04-24 20:54 | 59.70935 | 18.31737 | 2488 ft | 155 kts | 238° |
| 2026-04-24 20:54 | 59.70317 | 18.30003 | 2491 ft | 153 kts | 241° |
| 2026-04-24 20:55 | 59.69866 | 18.28107 | 2499 ft | 152 kts | 253° |
| 2026-04-24 20:55 | 59.69579 | 18.26101 | 2495 ft | 151 kts | 260° |
| 2026-04-24 20:55 | 59.69448 | 18.24042 | 2510 ft | 150 kts | 265° |
| 2026-04-24 20:55 | 59.69359 | 18.22037 | 2577 ft | 142 kts | 266° |